createdAt,value
2022-11-15T00:00:12.765Z,989.00
2022-11-15T00:01:11.686Z,989.01
2022-11-15T00:02:11.832Z,989.01
2022-11-15T00:03:11.677Z,989.02
2022-11-15T00:04:11.681Z,989.11
2022-11-15T00:05:11.717Z,989.00
2022-11-15T00:06:11.662Z,989.00
2022-11-15T00:07:18.006Z,989.02
2022-11-15T00:08:13.700Z,989.05
2022-11-15T00:09:11.630Z,989.06
2022-11-15T00:10:11.630Z,989.12
2022-11-15T00:11:11.638Z,989.09
2022-11-15T00:12:11.625Z,989.00
2022-11-15T00:13:11.613Z,989.08
2022-11-15T00:14:11.606Z,989.12
2022-11-15T00:15:11.603Z,989.01
2022-11-15T00:16:11.613Z,989.04
2022-11-15T00:17:11.586Z,989.02
2022-11-15T00:18:11.598Z,988.97
2022-11-15T00:19:11.570Z,989.00
2022-11-15T00:20:11.558Z,988.99
2022-11-15T00:21:11.567Z,989.00
2022-11-15T00:22:11.559Z,988.94
2022-11-15T00:23:11.539Z,989.01
2022-11-15T00:24:11.538Z,988.99
2022-11-15T00:25:11.518Z,989.01
2022-11-15T00:26:11.526Z,989.02
2022-11-15T00:27:11.529Z,989.02
2022-11-15T00:28:11.515Z,989.04
2022-11-15T00:29:11.493Z,988.93
2022-11-15T00:30:11.507Z,988.95
2022-11-15T00:31:11.516Z,988.94
2022-11-15T00:32:11.500Z,988.98
2022-11-15T00:33:11.478Z,988.92
2022-11-15T00:34:11.474Z,988.92
2022-11-15T00:35:11.465Z,988.90
2022-11-15T00:36:11.454Z,988.92
2022-11-15T00:37:11.459Z,988.89
2022-11-15T00:38:11.454Z,988.92
2022-11-15T00:39:11.443Z,988.89
2022-11-15T00:40:11.434Z,988.87
2022-11-15T00:41:11.432Z,988.83
2022-11-15T00:42:11.430Z,988.83
2022-11-15T00:43:11.413Z,988.78
2022-11-15T00:44:11.407Z,988.83
2022-11-15T00:45:11.404Z,988.94
2022-11-15T00:46:11.393Z,988.95
2022-11-15T00:47:11.393Z,989.01
2022-11-15T00:48:11.374Z,989.03
2022-11-15T00:49:11.374Z,989.04
2022-11-15T00:50:15.002Z,989.00
2022-11-15T00:51:12.360Z,989.10
2022-11-15T00:52:11.358Z,989.04
2022-11-15T00:53:11.339Z,989.14
2022-11-15T00:54:11.334Z,989.05
2022-11-15T00:55:11.327Z,989.03
2022-11-15T00:56:11.321Z,989.03
2022-11-15T00:57:11.311Z,989.01
2022-11-15T00:58:11.290Z,989.02
2022-11-15T00:59:12.294Z,989.05
2022-11-15T01:00:11.292Z,989.04
2022-11-15T01:01:11.414Z,989.08
2022-11-15T01:02:11.274Z,989.01
2022-11-15T01:03:11.266Z,989.05
2022-11-15T01:04:11.268Z,989.01
2022-11-15T01:05:11.345Z,989.03
2022-11-15T01:06:11.243Z,989.02
2022-11-15T01:07:11.332Z,989.06
2022-11-15T01:08:11.250Z,989.05
2022-11-15T01:09:11.237Z,988.99
2022-11-15T01:10:11.258Z,988.97
2022-11-15T01:11:11.222Z,988.99
2022-11-15T01:12:11.202Z,988.98
2022-11-15T01:13:11.200Z,988.95
2022-11-15T01:14:11.197Z,989.00
2022-11-15T01:15:11.193Z,988.93
2022-11-15T01:16:11.174Z,988.95
2022-11-15T01:17:11.169Z,988.92
2022-11-15T01:18:11.154Z,988.89
2022-11-15T01:19:11.157Z,988.87
2022-11-15T01:20:11.145Z,988.93
2022-11-15T01:21:11.161Z,988.86
2022-11-15T01:22:11.172Z,988.86
2022-11-15T01:23:11.128Z,988.90
2022-11-15T01:24:11.118Z,988.86
2022-11-15T01:25:11.102Z,988.88
2022-11-15T01:26:11.129Z,988.87
2022-11-15T01:27:11.114Z,988.79
2022-11-15T01:28:11.078Z,988.81
2022-11-15T01:29:11.085Z,988.84
2022-11-15T01:30:11.072Z,988.84
2022-11-15T01:31:11.061Z,988.82
2022-11-15T01:32:11.086Z,988.86
2022-11-15T01:33:11.054Z,988.88
2022-11-15T01:34:11.077Z,988.84
2022-11-15T01:35:11.038Z,988.89
2022-11-15T01:36:11.035Z,988.81
2022-11-15T01:37:11.040Z,988.83
2022-11-15T01:38:11.017Z,988.75
2022-11-15T01:39:11.018Z,988.78
2022-11-15T01:40:11.013Z,988.83
2022-11-15T01:41:10.994Z,988.81
2022-11-15T01:42:11.013Z,988.81
2022-11-15T01:43:10.977Z,988.82
2022-11-15T01:44:10.979Z,988.82
2022-11-15T01:45:10.982Z,988.76
2022-11-15T01:46:10.966Z,988.81
2022-11-15T01:47:10.981Z,988.67
2022-11-15T01:48:10.957Z,988.73
2022-11-15T01:49:10.938Z,988.73
2022-11-15T01:50:11.939Z,988.65
2022-11-15T01:51:10.929Z,988.68
2022-11-15T01:52:10.945Z,988.70
2022-11-15T01:53:10.901Z,988.60
2022-11-15T01:54:10.914Z,988.62
2022-11-15T01:55:10.917Z,988.54
2022-11-15T01:56:10.892Z,988.51
2022-11-15T01:57:10.889Z,988.54
2022-11-15T01:58:10.881Z,988.51
2022-11-15T01:59:10.886Z,988.49
2022-11-15T02:00:10.873Z,988.49
2022-11-15T02:01:10.904Z,988.48
2022-11-15T02:02:10.856Z,988.45
2022-11-15T02:03:10.850Z,988.38
2022-11-15T02:04:10.845Z,988.39
2022-11-15T02:05:10.847Z,988.38
2022-11-15T02:06:10.821Z,988.40
2022-11-15T02:07:10.903Z,988.36
2022-11-15T02:08:10.814Z,988.40
2022-11-15T02:09:10.817Z,988.35
2022-11-15T02:10:10.811Z,988.40
2022-11-15T02:11:10.811Z,988.35
2022-11-15T02:12:10.782Z,988.37
2022-11-15T02:13:10.778Z,988.34
2022-11-15T02:14:10.773Z,988.35
2022-11-15T02:15:10.770Z,988.34
2022-11-15T02:16:10.757Z,988.39
2022-11-15T02:17:10.756Z,988.32
2022-11-15T02:18:10.737Z,988.39
2022-11-15T02:19:10.734Z,988.38
2022-11-15T02:20:10.733Z,988.34
2022-11-15T02:21:10.725Z,988.44
2022-11-15T02:22:10.713Z,988.37
2022-11-15T02:23:10.728Z,988.39
2022-11-15T02:24:10.698Z,988.35
2022-11-15T02:25:10.693Z,988.31
2022-11-15T02:26:10.701Z,988.31
2022-11-15T02:27:10.684Z,988.33
2022-11-15T02:28:10.672Z,988.34
2022-11-15T02:29:10.666Z,988.38
2022-11-15T02:30:10.657Z,988.38
2022-11-15T02:31:10.653Z,988.34
2022-11-15T02:32:10.653Z,988.34
2022-11-15T02:33:10.640Z,988.33
2022-11-15T02:34:10.628Z,988.38
2022-11-15T02:35:10.625Z,988.29
2022-11-15T02:36:10.620Z,988.29
2022-11-15T02:37:10.623Z,988.27
2022-11-15T02:38:10.597Z,988.28
2022-11-15T02:39:10.592Z,988.20
2022-11-15T02:40:10.577Z,988.21
2022-11-15T02:41:10.572Z,988.24
2022-11-15T02:42:10.585Z,988.27
2022-11-15T02:43:10.560Z,988.21
2022-11-15T02:44:10.565Z,988.21
2022-11-15T02:45:10.549Z,988.26
2022-11-15T02:46:10.532Z,988.20
2022-11-15T02:47:10.544Z,988.19
2022-11-15T02:48:10.521Z,988.20
2022-11-15T02:49:10.541Z,988.25
2022-11-15T02:50:10.514Z,988.21
2022-11-15T02:51:10.513Z,988.27
2022-11-15T02:52:10.498Z,988.22
2022-11-15T02:53:10.493Z,988.25
2022-11-15T02:54:10.504Z,988.23
2022-11-15T02:55:10.472Z,988.20
2022-11-15T02:56:10.469Z,988.16
2022-11-15T02:57:10.459Z,988.17
2022-11-15T02:58:10.453Z,988.19
2022-11-15T02:59:10.453Z,988.20
2022-11-15T03:00:10.444Z,988.12
2022-11-15T03:01:10.449Z,988.15
2022-11-15T03:02:10.455Z,988.15
2022-11-15T03:03:10.424Z,988.17
2022-11-15T03:04:10.403Z,988.14
2022-11-15T03:05:10.424Z,988.12
2022-11-15T03:06:10.391Z,988.17
2022-11-15T03:07:10.447Z,988.12
2022-11-15T03:08:10.384Z,988.08
2022-11-15T03:09:10.380Z,988.08
2022-11-15T03:10:10.384Z,988.08
2022-11-15T03:11:10.365Z,988.06
2022-11-15T03:12:10.376Z,988.12
2022-11-15T03:13:10.380Z,988.10
2022-11-15T03:14:10.347Z,988.06
2022-11-15T03:15:10.337Z,988.06
2022-11-15T03:16:10.324Z,988.07
2022-11-15T03:17:10.340Z,988.04
2022-11-15T03:18:10.317Z,988.00
2022-11-15T03:19:10.304Z,988.06
2022-11-15T03:20:10.307Z,988.00
2022-11-15T03:21:10.284Z,988.03
2022-11-15T03:22:10.296Z,987.96
2022-11-15T03:23:10.285Z,987.96
2022-11-15T03:24:10.279Z,987.93
2022-11-15T03:25:10.259Z,987.95
2022-11-15T03:26:10.271Z,987.95
2022-11-15T03:27:10.262Z,987.99
2022-11-15T03:28:10.247Z,987.95
2022-11-15T03:29:10.235Z,987.96
2022-11-15T03:30:10.235Z,987.96
2022-11-15T03:31:10.242Z,988.00
2022-11-15T03:32:10.220Z,988.00
2022-11-15T03:33:10.213Z,987.94
2022-11-15T03:34:10.208Z,987.96
2022-11-15T03:35:10.199Z,987.93
2022-11-15T03:36:10.210Z,987.93
2022-11-15T03:37:10.195Z,987.87
2022-11-15T03:38:10.208Z,987.91
2022-11-15T03:39:10.173Z,987.95
2022-11-15T03:40:10.160Z,987.91
2022-11-15T03:41:10.148Z,987.98
2022-11-15T03:42:10.250Z,987.99
2022-11-15T03:43:10.146Z,987.95
2022-11-15T03:44:10.138Z,987.94
2022-11-15T03:45:10.133Z,987.94
2022-11-15T03:46:10.122Z,987.88
2022-11-15T03:47:10.121Z,987.93
2022-11-15T03:48:10.110Z,987.97
2022-11-15T03:49:10.102Z,987.87
2022-11-15T03:50:10.109Z,987.90
2022-11-15T03:51:10.093Z,987.92
2022-11-15T03:52:10.097Z,987.88
2022-11-15T03:53:10.065Z,987.92
2022-11-15T03:54:10.066Z,987.94
2022-11-15T03:55:10.067Z,987.95
2022-11-15T03:56:10.049Z,987.94
2022-11-15T03:57:10.062Z,987.91
2022-11-15T03:58:10.041Z,987.90
2022-11-15T03:59:10.037Z,987.84
2022-11-15T04:00:10.030Z,987.91
2022-11-15T04:01:10.045Z,987.86
2022-11-15T04:02:11.030Z,987.89
2022-11-15T04:03:10.015Z,987.92
2022-11-15T04:04:10.011Z,987.90
2022-11-15T04:05:10.005Z,987.89
2022-11-15T04:06:09.991Z,987.91
2022-11-15T04:07:10.053Z,987.87
2022-11-15T04:08:09.977Z,987.88
2022-11-15T04:09:09.973Z,987.90
2022-11-15T04:10:10.965Z,987.85
2022-11-15T04:11:09.957Z,987.76
2022-11-15T04:12:09.958Z,987.82
2022-11-15T04:13:09.941Z,987.85
2022-11-15T04:14:09.941Z,987.89
2022-11-15T04:15:09.931Z,987.86
2022-11-15T04:16:09.917Z,987.88
2022-11-15T04:17:09.918Z,987.80
2022-11-15T04:18:09.910Z,987.92
2022-11-15T04:19:09.905Z,987.85
2022-11-15T04:20:09.894Z,987.88
2022-11-15T04:21:09.929Z,987.87
2022-11-15T04:22:09.882Z,987.85
2022-11-15T04:23:09.894Z,987.82
2022-11-15T04:24:09.849Z,987.82
2022-11-15T04:25:09.867Z,987.86
2022-11-15T04:26:09.858Z,987.81
2022-11-15T04:27:09.845Z,987.95
2022-11-15T04:28:09.850Z,987.90
2022-11-15T04:29:09.830Z,987.91
2022-11-15T04:30:09.830Z,987.85
2022-11-15T04:31:09.830Z,987.86
2022-11-15T04:32:09.814Z,987.87
2022-11-15T04:33:09.810Z,987.91
2022-11-15T04:34:09.806Z,987.87
2022-11-15T04:35:09.807Z,987.88
2022-11-15T04:36:09.789Z,987.85
2022-11-15T04:37:09.781Z,987.84
2022-11-15T04:38:09.770Z,987.87
2022-11-15T04:39:09.786Z,987.89
2022-11-15T04:40:09.764Z,987.83
2022-11-15T04:41:09.754Z,987.78
2022-11-15T04:42:09.762Z,987.85
2022-11-15T04:43:09.741Z,987.86
2022-11-15T04:44:09.730Z,987.82
2022-11-15T04:45:09.734Z,987.75
2022-11-15T04:46:09.709Z,987.85
2022-11-15T04:47:09.714Z,987.82
2022-11-15T04:48:09.711Z,987.80
2022-11-15T04:49:09.693Z,987.79
2022-11-15T04:50:09.694Z,987.80
2022-11-15T04:51:09.685Z,987.78
2022-11-15T04:52:09.699Z,987.77
2022-11-15T04:53:09.672Z,987.73
2022-11-15T04:54:09.665Z,987.84
2022-11-15T04:55:09.668Z,987.82
2022-11-15T04:56:09.650Z,987.86
2022-11-15T04:57:09.662Z,987.85
2022-11-15T04:58:09.640Z,987.79
2022-11-15T04:59:09.639Z,987.82
2022-11-15T05:00:09.657Z,987.92
2022-11-15T05:01:09.668Z,987.89
2022-11-15T05:02:09.635Z,987.97
2022-11-15T05:03:09.623Z,987.91
2022-11-15T05:04:09.603Z,987.86
2022-11-15T05:05:09.591Z,987.91
2022-11-15T05:06:09.582Z,987.86
2022-11-15T05:07:09.623Z,987.89
2022-11-15T05:08:09.603Z,987.88
2022-11-15T05:09:09.577Z,987.89
2022-11-15T05:10:09.567Z,987.89
2022-11-15T05:11:09.553Z,987.91
2022-11-15T05:12:09.543Z,987.87
2022-11-15T05:13:09.536Z,987.90
2022-11-15T05:14:09.574Z,987.97
2022-11-15T05:15:09.526Z,987.96
2022-11-15T05:16:09.523Z,988.01
2022-11-15T05:17:09.515Z,987.98
2022-11-15T05:18:09.519Z,988.00
2022-11-15T05:19:09.506Z,988.01
2022-11-15T05:20:09.485Z,988.03
2022-11-15T05:21:09.481Z,987.97
2022-11-15T05:22:09.482Z,988.00
2022-11-15T05:23:09.465Z,988.01
2022-11-15T05:24:09.486Z,987.98
2022-11-15T05:25:09.452Z,988.00
2022-11-15T05:26:09.766Z,988.01
2022-11-15T05:27:09.454Z,988.05
2022-11-15T05:28:09.437Z,988.06
2022-11-15T05:29:09.454Z,988.03
2022-11-15T05:30:09.408Z,988.08
2022-11-15T05:31:09.418Z,988.05
2022-11-15T05:32:09.408Z,988.09
2022-11-15T05:33:09.390Z,988.11
2022-11-15T05:34:09.384Z,988.03
2022-11-15T05:35:09.413Z,988.04
2022-11-15T05:36:09.369Z,988.10
2022-11-15T05:37:09.357Z,988.05
2022-11-15T05:38:09.363Z,987.96
2022-11-15T05:39:09.581Z,988.01
2022-11-15T05:40:09.381Z,987.98
2022-11-15T05:41:09.341Z,987.98
2022-11-15T05:42:09.329Z,987.95
2022-11-15T05:43:09.335Z,987.97
2022-11-15T05:44:09.329Z,987.99
2022-11-15T05:45:09.306Z,987.98
2022-11-15T05:46:09.308Z,987.98
2022-11-15T05:47:09.320Z,987.95
2022-11-15T05:48:09.299Z,987.97
2022-11-15T05:49:09.272Z,987.94
2022-11-15T05:50:09.282Z,987.92
2022-11-15T05:51:09.261Z,987.99
2022-11-15T05:52:09.281Z,988.00
2022-11-15T05:53:09.286Z,987.94
2022-11-15T05:54:09.241Z,987.91
2022-11-15T05:55:09.240Z,987.90
2022-11-15T05:56:09.235Z,987.92
2022-11-15T05:57:09.228Z,987.90
2022-11-15T05:58:09.236Z,988.02
2022-11-15T05:59:09.211Z,987.96
2022-11-15T06:00:10.210Z,987.98
2022-11-15T06:01:09.201Z,987.93
2022-11-15T06:02:09.233Z,987.97
2022-11-15T06:03:09.180Z,987.96
2022-11-15T06:04:09.196Z,987.96
2022-11-15T06:05:09.189Z,987.93
2022-11-15T06:06:15.091Z,987.92
2022-11-15T06:07:09.239Z,987.96
2022-11-15T06:08:09.145Z,987.95
2022-11-15T06:09:09.165Z,987.94
2022-11-15T06:10:09.124Z,987.92
2022-11-15T06:11:09.132Z,987.90
2022-11-15T06:12:09.121Z,987.95
2022-11-15T06:13:09.127Z,988.00
2022-11-15T06:14:09.104Z,988.02
2022-11-15T06:15:09.110Z,987.92
2022-11-15T06:16:09.089Z,987.93
2022-11-15T06:17:11.508Z,987.92
2022-11-15T06:18:10.077Z,987.90
2022-11-15T06:19:09.060Z,988.00
2022-11-15T06:20:09.084Z,987.95
2022-11-15T06:21:09.059Z,987.91
2022-11-15T06:22:09.026Z,987.90
2022-11-15T06:23:09.041Z,987.92
2022-11-15T06:24:09.038Z,987.97
2022-11-15T06:25:09.035Z,987.97
2022-11-15T06:26:09.026Z,987.90
2022-11-15T06:27:09.009Z,987.94
2022-11-15T06:28:08.996Z,987.88
2022-11-15T06:29:08.993Z,987.97
2022-11-15T06:30:08.997Z,987.95
2022-11-15T06:31:08.998Z,988.00
2022-11-15T06:32:08.980Z,988.03
2022-11-15T06:33:08.971Z,987.99
2022-11-15T06:34:08.958Z,987.95
2022-11-15T06:35:08.952Z,987.97
2022-11-15T06:36:13.134Z,987.90
2022-11-15T06:37:09.941Z,987.92
2022-11-15T06:38:08.930Z,987.90
2022-11-15T06:39:08.933Z,987.83
2022-11-15T06:40:08.909Z,987.91
2022-11-15T06:41:08.912Z,987.88
2022-11-15T06:42:08.924Z,987.83
2022-11-15T06:43:08.905Z,987.90
2022-11-15T06:44:08.909Z,987.90
2022-11-15T06:45:08.884Z,987.83
2022-11-15T06:46:08.873Z,987.85
2022-11-15T06:47:08.870Z,987.86
2022-11-15T06:48:08.871Z,987.83
2022-11-15T06:49:09.919Z,987.87
2022-11-15T06:50:09.833Z,987.92
2022-11-15T06:51:08.846Z,987.87
2022-11-15T06:52:08.825Z,987.91
2022-11-15T06:53:08.832Z,987.90
2022-11-15T06:54:08.834Z,987.92
2022-11-15T06:55:08.816Z,987.87
2022-11-15T06:56:08.810Z,987.88
2022-11-15T06:57:08.794Z,987.88
2022-11-15T06:58:08.810Z,987.82
2022-11-15T06:59:08.773Z,987.88
2022-11-15T07:00:08.776Z,987.87
2022-11-15T07:01:08.766Z,987.86
2022-11-15T07:02:08.791Z,987.84
2022-11-15T07:03:08.771Z,987.87
2022-11-15T07:04:08.746Z,987.89
2022-11-15T07:05:08.750Z,987.87
2022-11-15T07:06:08.742Z,987.86
2022-11-15T07:07:08.768Z,987.84
2022-11-15T07:08:08.718Z,987.90
2022-11-15T07:09:08.729Z,987.88
2022-11-15T07:10:08.694Z,987.84
2022-11-15T07:11:08.705Z,987.93
2022-11-15T07:12:08.689Z,987.89
2022-11-15T07:13:08.705Z,987.90
2022-11-15T07:14:08.684Z,987.93
2022-11-15T07:15:08.675Z,987.94
2022-11-15T07:16:08.666Z,987.91
2022-11-15T07:17:08.654Z,987.94
2022-11-15T07:18:08.651Z,987.90
2022-11-15T07:19:08.653Z,987.93
2022-11-15T07:20:08.648Z,987.88
2022-11-15T07:21:08.639Z,987.94
2022-11-15T07:22:08.622Z,987.91
2022-11-15T07:23:08.625Z,987.95
2022-11-15T07:24:08.616Z,988.00
2022-11-15T07:25:08.604Z,987.97
2022-11-15T07:26:08.590Z,987.98
2022-11-15T07:27:08.577Z,987.89
2022-11-15T07:28:08.573Z,987.94
2022-11-15T07:29:08.606Z,987.98
2022-11-15T07:30:08.558Z,987.99
2022-11-15T07:31:08.553Z,987.92
2022-11-15T07:32:08.545Z,987.90
2022-11-15T07:33:08.540Z,987.92
2022-11-15T07:34:08.541Z,987.93
2022-11-15T07:35:08.525Z,987.86
2022-11-15T07:36:08.524Z,987.98
2022-11-15T07:37:08.529Z,987.98
2022-11-15T07:38:08.517Z,988.03
2022-11-15T07:39:08.500Z,987.98
2022-11-15T07:40:08.481Z,988.03
2022-11-15T07:41:09.479Z,988.07
2022-11-15T07:42:08.477Z,988.10
2022-11-15T07:43:08.478Z,988.11
2022-11-15T07:44:08.466Z,988.08
2022-11-15T07:45:08.470Z,988.06
2022-11-15T07:46:08.449Z,988.06
2022-11-15T07:47:08.434Z,987.98
2022-11-15T07:48:09.432Z,987.95
2022-11-15T07:49:08.428Z,987.96
2022-11-15T07:50:08.432Z,987.96
2022-11-15T07:51:13.799Z,988.01
2022-11-15T07:52:10.413Z,987.99
2022-11-15T07:53:08.401Z,988.00
2022-11-15T07:54:08.402Z,988.04
2022-11-15T07:55:08.412Z,988.02
2022-11-15T07:56:08.382Z,988.09
2022-11-15T07:57:08.379Z,988.09
2022-11-15T07:58:08.364Z,988.02
2022-11-15T07:59:08.362Z,988.04
2022-11-15T08:00:08.354Z,988.03
2022-11-15T08:01:08.561Z,988.01
2022-11-15T08:02:08.397Z,987.99
2022-11-15T08:03:08.337Z,988.04
2022-11-15T08:04:08.325Z,987.96
2022-11-15T08:05:08.325Z,987.97
2022-11-15T08:06:08.328Z,987.99
2022-11-15T08:07:08.343Z,987.97
2022-11-15T08:08:08.308Z,988.02
2022-11-15T08:09:08.310Z,988.02
2022-11-15T08:10:08.297Z,988.00
2022-11-15T08:11:08.280Z,988.03
2022-11-15T08:12:08.280Z,988.02
2022-11-15T08:13:08.358Z,987.96
2022-11-15T08:14:08.344Z,988.02
2022-11-15T08:15:08.248Z,987.99
2022-11-15T08:16:08.245Z,987.94
2022-11-15T08:17:08.232Z,987.95
2022-11-15T08:18:08.216Z,987.91
2022-11-15T08:19:08.236Z,987.89
2022-11-15T08:20:08.217Z,987.81
2022-11-15T08:21:08.213Z,987.84
2022-11-15T08:22:08.201Z,987.80
2022-11-15T08:23:08.197Z,987.70
2022-11-15T08:24:08.215Z,987.71
2022-11-15T08:25:08.191Z,987.69
2022-11-15T08:26:08.181Z,987.70
2022-11-15T08:27:08.215Z,987.89
2022-11-15T08:28:08.169Z,987.80
2022-11-15T08:29:08.173Z,987.72
2022-11-15T08:30:08.150Z,987.81
2022-11-15T08:31:08.139Z,987.75
2022-11-15T08:32:08.135Z,987.79
2022-11-15T08:33:08.132Z,987.70
2022-11-15T08:34:08.134Z,987.81
2022-11-15T08:35:08.125Z,987.73
2022-11-15T08:36:08.121Z,987.61
2022-11-15T08:37:08.114Z,987.51
2022-11-15T08:38:08.093Z,987.62
2022-11-15T08:39:08.092Z,987.60
2022-11-15T08:40:08.096Z,987.54
2022-11-15T08:41:08.080Z,987.45
2022-11-15T08:42:08.071Z,987.31
2022-11-15T08:43:08.068Z,987.37
2022-11-15T08:44:08.060Z,987.30
2022-11-15T08:45:08.067Z,987.40
2022-11-15T08:46:08.049Z,987.40
2022-11-15T08:47:08.049Z,987.29
2022-11-15T08:48:08.036Z,987.26
2022-11-15T08:49:08.032Z,987.25
2022-11-15T08:50:08.025Z,987.26
2022-11-15T08:51:08.024Z,987.36
2022-11-15T08:52:08.000Z,987.27
2022-11-15T08:53:08.002Z,987.25
2022-11-15T08:54:07.989Z,987.21
2022-11-15T08:55:07.998Z,987.26
2022-11-15T08:56:07.985Z,987.28
2022-11-15T08:57:07.972Z,987.33
2022-11-15T08:58:07.976Z,987.33
2022-11-15T08:59:07.965Z,987.40
2022-11-15T09:00:07.957Z,987.29
2022-11-15T09:01:08.008Z,987.35
2022-11-15T09:02:07.968Z,987.36
2022-11-15T09:03:08.934Z,987.32
2022-11-15T09:04:07.929Z,987.35
2022-11-15T09:05:07.915Z,987.23
2022-11-15T09:06:07.925Z,987.32
2022-11-15T09:07:07.998Z,987.30
2022-11-15T09:08:25.571Z,987.29
2022-11-15T09:09:09.890Z,987.32
2022-11-15T09:10:07.888Z,987.27
2022-11-15T09:11:07.881Z,987.28
2022-11-15T09:12:07.868Z,987.26
2022-11-15T09:13:07.888Z,987.22
2022-11-15T09:14:07.853Z,987.25
2022-11-15T09:15:07.867Z,987.23
2022-11-15T09:16:07.867Z,987.27
2022-11-15T09:17:07.837Z,987.25
2022-11-15T09:18:07.829Z,987.25
2022-11-15T09:19:11.969Z,987.28
2022-11-15T09:20:08.824Z,987.28
2022-11-15T09:21:07.813Z,987.30
2022-11-15T09:22:07.796Z,987.29
2022-11-15T09:23:07.806Z,987.37
2022-11-15T09:24:07.785Z,987.37
2022-11-15T09:25:10.980Z,987.38
2022-11-15T09:26:08.779Z,987.38
2022-11-15T09:27:07.763Z,987.32
2022-11-15T09:28:07.755Z,987.41
2022-11-15T09:29:07.847Z,987.28
2022-11-15T09:30:07.776Z,987.33
2022-11-15T09:31:07.736Z,987.38
2022-11-15T09:32:07.763Z,987.34
2022-11-15T09:33:07.720Z,987.29
2022-11-15T09:34:07.712Z,987.22
2022-11-15T09:35:07.702Z,987.32
2022-11-15T09:36:07.797Z,987.27
2022-11-15T09:37:07.678Z,987.28
2022-11-15T09:38:07.682Z,987.24
2022-11-15T09:39:07.661Z,987.23
2022-11-15T09:40:07.659Z,987.21
2022-11-15T09:41:07.652Z,987.24
2022-11-15T09:42:07.648Z,987.30
2022-11-15T09:43:07.638Z,987.27
2022-11-15T09:44:07.661Z,987.24
2022-11-15T09:45:07.625Z,987.28
2022-11-15T09:46:07.627Z,987.18
2022-11-15T09:47:07.610Z,987.26
2022-11-15T09:48:07.607Z,987.27
2022-11-15T09:49:07.607Z,987.25
2022-11-15T09:50:07.619Z,987.29
2022-11-15T09:51:07.828Z,987.27
2022-11-15T09:52:07.560Z,987.28
2022-11-15T09:53:08.568Z,987.24
2022-11-15T09:55:09.564Z,987.21
2022-11-15T09:56:07.568Z,987.23
2022-11-15T09:57:11.663Z,987.25
2022-11-15T09:58:08.523Z,987.30
2022-11-15T09:59:07.520Z,987.31
2022-11-15T10:00:38.990Z,987.29
2022-11-15T10:01:09.552Z,987.33
2022-11-15T10:02:07.492Z,987.31
2022-11-15T10:03:07.494Z,987.35
2022-11-15T10:04:10.791Z,987.30
2022-11-15T10:05:08.481Z,987.27
2022-11-15T10:06:07.468Z,987.31
2022-11-15T10:07:07.476Z,987.23
2022-11-15T10:08:07.456Z,987.30
2022-11-15T10:09:07.448Z,987.31
2022-11-15T10:10:07.427Z,987.17
2022-11-15T10:11:36.320Z,987.24
2022-11-15T10:12:09.423Z,987.22
2022-11-15T10:13:07.415Z,987.23
2022-11-15T10:14:07.421Z,987.16
2022-11-15T10:15:08.397Z,987.10
2022-11-15T10:16:07.392Z,987.11
2022-11-15T10:17:07.381Z,987.16
2022-11-15T10:18:07.387Z,987.04
2022-11-15T10:19:07.510Z,987.10
2022-11-15T10:20:07.352Z,987.08
2022-11-15T10:21:07.348Z,987.06
2022-11-15T10:22:07.330Z,987.10
2022-11-15T10:23:07.370Z,987.06
2022-11-15T10:24:07.335Z,987.00
2022-11-15T10:25:07.316Z,986.99
2022-11-15T10:26:07.309Z,987.05
2022-11-15T10:27:07.327Z,987.07
2022-11-15T10:28:07.300Z,987.05
2022-11-15T10:29:07.301Z,986.93
2022-11-15T10:30:07.280Z,986.98
2022-11-15T10:31:07.308Z,986.94
2022-11-15T10:32:07.280Z,986.96
2022-11-15T10:33:07.268Z,986.95
2022-11-15T10:34:07.276Z,986.98
2022-11-15T10:35:07.240Z,986.93
2022-11-15T10:36:07.237Z,986.88
2022-11-15T10:37:07.245Z,986.78
2022-11-15T10:38:07.213Z,986.80
2022-11-15T10:39:07.228Z,986.84
2022-11-15T10:40:07.216Z,986.81
2022-11-15T10:41:07.196Z,986.80
2022-11-15T10:42:11.869Z,986.83
2022-11-15T10:43:09.193Z,986.76
2022-11-15T10:44:07.191Z,986.88
2022-11-15T10:45:07.178Z,986.80
2022-11-15T10:46:31.489Z,986.79
2022-11-15T10:47:09.172Z,986.77
2022-11-15T10:48:07.160Z,986.77
2022-11-15T10:49:07.165Z,986.70
2022-11-15T10:50:07.145Z,986.71
2022-11-15T10:51:07.128Z,986.76
2022-11-15T10:52:07.120Z,986.69
2022-11-15T10:53:07.133Z,986.67
2022-11-15T10:54:11.789Z,986.67
2022-11-15T10:55:09.119Z,986.66
2022-11-15T10:56:07.118Z,986.64
2022-11-15T10:57:07.088Z,986.67
2022-11-15T10:58:07.096Z,986.65
2022-11-15T10:59:07.065Z,986.64
2022-11-15T11:00:07.071Z,986.64
2022-11-15T11:01:07.113Z,986.60
2022-11-15T11:02:07.043Z,986.59
2022-11-15T11:03:07.028Z,986.61
2022-11-15T11:04:07.035Z,986.62
2022-11-15T11:05:07.053Z,986.56
2022-11-15T11:06:07.053Z,986.56
2022-11-15T11:07:07.044Z,986.75
2022-11-15T11:08:07.006Z,986.59
2022-11-15T11:09:07.004Z,986.61
2022-11-15T11:10:22.867Z,986.57
2022-11-15T11:11:08.978Z,986.54
2022-11-15T11:12:06.967Z,986.56
2022-11-15T11:13:06.976Z,986.49
2022-11-15T11:14:06.956Z,986.51
2022-11-15T11:15:06.939Z,986.49
2022-11-15T11:16:06.964Z,986.51
2022-11-15T11:17:06.932Z,986.49
2022-11-15T11:18:06.937Z,986.53
2022-11-15T11:19:06.931Z,986.58
2022-11-15T11:20:06.912Z,986.56
2022-11-15T11:21:06.924Z,986.46
2022-11-15T11:22:06.898Z,986.45
2022-11-15T11:23:06.892Z,986.43
2022-11-15T11:24:06.889Z,986.43
2022-11-15T11:25:06.896Z,986.42
2022-11-15T11:26:06.867Z,986.44
2022-11-15T11:27:06.868Z,986.46
2022-11-15T11:28:06.862Z,986.40
2022-11-15T11:29:06.844Z,986.46
2022-11-15T11:30:06.832Z,986.40
2022-11-15T11:31:06.819Z,986.48
2022-11-15T11:32:06.876Z,986.46
2022-11-15T11:33:06.807Z,986.50
2022-11-15T11:34:06.827Z,986.52
2022-11-15T11:35:06.803Z,986.54
2022-11-15T11:36:06.791Z,986.52
2022-11-15T11:37:06.793Z,986.50
2022-11-15T11:38:06.778Z,986.43
2022-11-15T11:39:06.923Z,986.48
2022-11-15T11:40:10.653Z,986.57
2022-11-15T11:41:06.757Z,986.47
2022-11-15T11:42:06.748Z,986.54
2022-11-15T11:43:06.739Z,986.45
2022-11-15T11:44:06.747Z,986.45
2022-11-15T11:45:06.725Z,986.46
2022-11-15T11:46:06.718Z,986.44
2022-11-15T11:47:06.707Z,986.41
2022-11-15T11:48:06.698Z,986.42
2022-11-15T11:49:06.718Z,986.36
2022-11-15T11:50:06.696Z,986.34
2022-11-15T11:51:06.675Z,986.32
2022-11-15T11:52:06.674Z,986.40
2022-11-15T11:53:06.682Z,986.27
2022-11-15T11:54:06.807Z,986.35
2022-11-15T11:55:06.703Z,986.26
2022-11-15T11:56:06.639Z,986.22
2022-11-15T11:57:06.651Z,986.21
2022-11-15T11:58:06.640Z,986.19
2022-11-15T11:59:06.645Z,986.15
2022-11-15T12:00:06.630Z,986.17
2022-11-15T12:01:12.405Z,986.13
2022-11-15T12:02:08.772Z,986.18
2022-11-15T12:03:06.677Z,986.18
2022-11-15T12:04:06.597Z,986.14
2022-11-15T12:05:06.595Z,986.10
2022-11-15T12:06:06.627Z,986.09
2022-11-15T12:07:06.687Z,986.12
2022-11-15T12:08:06.555Z,986.04
2022-11-15T12:09:06.569Z,986.09
2022-11-15T12:10:06.559Z,986.05
2022-11-15T12:11:06.548Z,986.00
2022-11-15T12:12:06.531Z,985.96
2022-11-15T12:13:06.527Z,986.00
2022-11-15T12:14:06.527Z,985.93
2022-11-15T12:15:06.530Z,985.95
2022-11-15T12:16:10.243Z,986.02
2022-11-15T12:17:07.510Z,985.88
2022-11-15T12:18:06.496Z,985.89
2022-11-15T12:19:06.487Z,985.84
2022-11-15T12:20:06.482Z,985.85
2022-11-15T12:21:06.483Z,985.80
2022-11-15T12:22:06.485Z,985.80
2022-11-15T12:23:06.494Z,985.78
2022-11-15T12:24:06.455Z,985.79
2022-11-15T12:25:06.446Z,985.81
2022-11-15T12:26:06.441Z,985.79
2022-11-15T12:27:06.430Z,985.73
2022-11-15T12:28:06.418Z,985.74
2022-11-15T12:29:08.562Z,985.72